Time,TemperatureF,DewpointF,PressureIn,WindDirection,WindDirectionDegrees,WindSpeedMPH,WindSpeedGustMPH,Humidity,HourlyPrecipIn,Conditions,Clouds,dailyrainin,SoftwareType,DateUTC
2013-05-08 00:01:00,66.6,36.6,25.34,SSE,158,13.2,13.2,33,0.00,,---,0.00,VWS V14.01,2013-05-08 05:01:00,
2013-05-08 00:06:00,66.4,36.4,25.34,SSE,158,10.7,12.5,33,0.00,,---,0.00,VWS V14.01,2013-05-08 05:06:00,
2013-05-08 00:11:00,66.4,36.4,25.34,South,180,12.8,12.8,33,0.00,,---,0.00,VWS V14.01,2013-05-08 05:11:00,
2013-05-08 00:16:00,66.2,36.3,25.34,SSE,158,11.0,11.2,33,0.00,,---,0.00,VWS V14.01,2013-05-08 05:16:00,
2013-05-08 00:21:00,66.0,36.9,25.34,SSE,158,7.6,8.1,34,0.00,,---,0.00,VWS V14.01,2013-05-08 05:21:00,
2013-05-08 00:26:00,65.8,36.7,25.34,ESE,112,6.5,6.5,34,0.00,,---,0.00,VWS V14.01,2013-05-08 05:26:00,
2013-05-08 00:31:00,64.4,35.5,25.34,SE,135,5.4,6.0,34,0.00,,---,0.00,VWS V14.01,2013-05-08 05:31:00,
2013-05-08 00:36:00,63.9,35.7,25.37,ESE,112,6.5,7.6,35,0.00,,---,0.00,VWS V14.01,2013-05-08 05:36:00,
2013-05-08 00:41:00,63.7,36.2,25.37,ESE,112,7.4,9.6,36,0.00,,---,0.00,VWS V14.01,2013-05-08 05:41:00,
2013-05-08 00:46:00,63.3,36.6,25.37,ESE,112,5.8,6.3,37,0.00,,---,0.00,VWS V14.01,2013-05-08 05:46:00,
2013-05-08 00:51:00,63.9,38.5,25.37,SE,135,6.5,6.5,39,0.00,,---,0.00,VWS V14.01,2013-05-08 05:51:00,
2013-05-08 00:56:00,63.3,37.3,25.37,SE,135,5.6,6.3,38,0.00,,---,0.00,VWS V14.01,2013-05-08 05:56:00,
2013-05-08 01:01:00,63.1,38.5,25.37,SSE,158,6.3,8.1,40,0.00,,---,0.00,VWS V14.01,2013-05-08 06:01:00,
2013-05-08 01:06:00,64.4,39.6,25.37,SE,135,10.1,13.4,40,0.00,,---,0.00,VWS V14.01,2013-05-08 06:06:00,
2013-05-08 01:11:00,64.8,39.9,25.37,SSW,202,11.0,11.0,40,0.00,,---,0.00,VWS V14.01,2013-05-08 06:11:00,
2013-05-08 01:16:00,64.8,39.9,25.37,SSE,158,12.3,14.8,40,0.00,,---,0.00,VWS V14.01,2013-05-08 06:16:00,
2013-05-08 01:21:00,64.6,39.7,25.37,SE,135,7.6,9.6,40,0.00,,---,0.00,VWS V14.01,2013-05-08 06:21:00,
2013-05-08 01:26:00,64.6,39.7,25.37,SSE,158,7.6,8.1,40,0.00,,---,0.00,VWS V14.01,2013-05-08 06:26:00,
2013-05-08 01:31:00,64.4,40.2,25.37,SSE,158,7.4,12.3,41,0.00,,---,0.00,VWS V14.01,2013-05-08 06:31:00,
2013-05-08 01:36:00,64.2,40.7,25.37,South,180,7.8,10.1,42,0.00,,---,0.00,VWS V14.01,2013-05-08 06:36:00,
2013-05-08 01:41:00,64.2,40.0,25.37,SSE,158,4.0,7.4,41,0.00,,---,0.00,VWS V14.01,2013-05-08 06:41:00,
2013-05-08 01:46:00,63.9,39.7,25.37,SSW,202,2.5,3.1,41,0.00,,---,0.00,VWS V14.01,2013-05-08 06:46:00,
2013-05-08 01:51:00,63.0,37.6,25.37,WNW,292,0.0,2.2,39,0.00,,---,0.00,VWS V14.01,2013-05-08 06:51:00,
2013-05-08 01:56:00,62.6,38.0,25.37,West,270,1.1,2.2,40,0.00,,---,0.00,VWS V14.01,2013-05-08 06:56:00,
2013-05-08 02:01:00,62.4,38.4,25.37,SSW,202,1.6,2.5,41,0.00,,---,0.00,VWS V14.01,2013-05-08 07:01:00,
2013-05-08 02:06:00,63.1,39.7,25.37,SSW,202,2.2,4.0,42,0.00,,---,0.00,VWS V14.01,2013-05-08 07:06:00,
2013-05-08 02:11:00,63.1,38.5,25.37,SW,225,0.0,0.9,40,0.00,,---,0.00,VWS V14.01,2013-05-08 07:11:00,
2013-05-08 02:16:00,63.7,40.2,25.37,SSE,158,5.6,5.6,42,0.00,,---,0.00,VWS V14.01,2013-05-08 07:16:00,
2013-05-08 02:21:00,64.8,39.9,25.37,SSW,202,4.0,7.6,40,0.00,,---,0.00,VWS V14.01,2013-05-08 07:21:00,
2013-05-08 02:26:00,64.9,39.4,25.37,South,180,3.4,4.9,39,0.00,,---,0.00,VWS V14.01,2013-05-08 07:26:00,
2013-05-08 02:31:00,64.9,39.4,25.37,West,270,2.5,3.6,39,0.00,,---,0.00,VWS V14.01,2013-05-08 07:31:00,
2013-05-08 02:36:00,63.9,38.5,25.37,NW,315,3.1,3.1,39,0.00,,---,0.00,VWS V14.01,2013-05-08 07:36:00,
2013-05-08 02:41:00,63.0,37.6,25.37,SSW,202,2.2,4.3,39,0.00,,---,0.00,VWS V14.01,2013-05-08 07:41:00,
2013-05-08 02:46:00,62.1,37.5,25.37,North,0,2.7,2.7,40,0.00,,---,0.00,VWS V14.01,2013-05-08 07:46:00,
2013-05-08 02:51:00,61.5,37.6,25.37,North,0,1.1,1.1,41,0.00,,---,0.00,VWS V14.01,2013-05-08 07:51:00,
2013-05-08 02:56:00,61.5,38.8,25.37,NNW,338,3.6,4.0,43,0.00,,---,0.00,VWS V14.01,2013-05-08 07:56:00,
2013-05-08 03:01:00,61.7,39.6,25.37,ESE,112,2.9,3.1,44,0.00,,---,0.00,VWS V14.01,2013-05-08 08:01:00,
2013-05-08 03:06:00,62.2,40.7,25.37,SSW,202,2.5,2.7,45,0.00,,---,0.00,VWS V14.01,2013-05-08 08:06:00,
2013-05-08 03:11:00,62.4,41.4,25.37,WSW,248,2.5,2.5,46,0.00,,---,0.00,VWS V14.01,2013-05-08 08:11:00,
2013-05-08 03:16:00,62.1,40.5,25.37,WSW,248,4.0,4.3,45,0.00,,---,0.00,VWS V14.01,2013-05-08 08:16:00,
2013-05-08 03:21:00,62.6,41.5,25.37,WSW,248,2.7,2.7,46,0.00,,---,0.00,VWS V14.01,2013-05-08 08:21:00,
2013-05-08 03:26:00,61.9,40.3,25.37,WNW,292,0.0,0.0,45,0.00,,---,0.00,VWS V14.01,2013-05-08 08:26:00,
2013-05-08 03:31:00,61.3,39.3,25.37,SSE,158,0.0,0.0,44,0.00,,---,0.00,VWS V14.01,2013-05-08 08:31:00,
2013-05-08 03:36:00,62.1,42.2,25.37,South,180,2.0,2.0,48,0.00,,---,0.00,VWS V14.01,2013-05-08 08:36:00,
2013-05-08 03:41:00,62.1,42.7,25.37,SE,135,4.7,4.7,49,0.00,,---,0.00,VWS V14.01,2013-05-08 08:41:00,
2013-05-08 03:46:00,62.6,42.1,25.37,SSE,158,4.3,4.3,47,0.00,,---,0.00,VWS V14.01,2013-05-08 08:46:00,
2013-05-08 03:51:00,62.6,41.5,25.37,South,180,2.7,4.9,46,0.00,,---,0.00,VWS V14.01,2013-05-08 08:51:00,
2013-05-08 03:56:00,62.4,41.9,25.37,SSW,202,2.0,2.0,47,0.00,,---,0.00,VWS V14.01,2013-05-08 08:56:00,
2013-05-08 04:01:00,61.9,40.3,25.37,South,180,2.2,2.2,45,0.00,,---,0.00,VWS V14.01,2013-05-08 09:01:00,
2013-05-08 04:06:00,61.9,40.3,25.37,SSE,158,6.3,6.3,45,0.00,,---,0.00,VWS V14.01,2013-05-08 09:06:00,
2013-05-08 04:11:00,62.2,41.2,25.37,SSE,158,4.3,4.3,46,0.00,,---,0.00,VWS V14.01,2013-05-08 09:11:00,
2013-05-08 04:16:00,62.6,41.5,25.37,SE,135,6.3,6.3,46,0.00,,---,0.00,VWS V14.01,2013-05-08 09:16:00,
2013-05-08 04:21:00,62.6,41.5,25.37,SE,135,6.3,6.3,46,0.00,,---,0.00,VWS V14.01,2013-05-08 09:21:00,
2013-05-08 04:26:00,62.6,41.5,25.37,SSE,158,5.8,5.8,46,0.00,,---,0.00,VWS V14.01,2013-05-08 09:26:00,
2013-05-08 04:31:00,62.6,41.5,25.37,SSW,202,5.4,5.4,46,0.00,,---,0.00,VWS V14.01,2013-05-08 09:31:00,
2013-05-08 04:36:00,61.7,40.7,25.37,South,180,2.7,2.7,46,0.00,,---,0.00,VWS V14.01,2013-05-08 09:36:00,
2013-05-08 04:41:00,61.3,41.0,25.37,South,180,3.6,3.6,47,0.00,,---,0.00,VWS V14.01,2013-05-08 09:41:00,
2013-05-08 04:46:00,61.7,41.8,25.37,SSE,158,3.8,4.3,48,0.00,,---,0.00,VWS V14.01,2013-05-08 09:46:00,
2013-05-08 04:51:00,61.9,41.5,25.37,South,180,4.3,4.7,47,0.00,,---,0.00,VWS V14.01,2013-05-08 09:51:00,
2013-05-08 04:56:00,61.5,41.7,25.37,SSW,202,2.0,2.0,48,0.00,,---,0.00,VWS V14.01,2013-05-08 09:56:00,
2013-05-08 05:01:00,61.2,41.3,25.37,South,180,4.3,4.3,48,0.00,,---,0.00,VWS V14.01,2013-05-08 10:01:00,
2013-05-08 05:06:00,61.0,40.6,25.37,SW,225,4.3,4.3,47,0.00,,---,0.00,VWS V14.01,2013-05-08 10:06:00,
2013-05-08 05:11:00,60.8,39.9,25.37,SSW,202,1.3,2.0,46,0.00,,---,0.00,VWS V14.01,2013-05-08 10:11:00,
2013-05-08 05:16:00,60.6,39.8,25.37,WNW,292,1.3,1.3,46,0.00,,---,0.00,VWS V14.01,2013-05-08 10:16:00,
2013-05-08 05:22:00,59.2,40.0,25.37,North,0,5.6,5.6,49,0.00,,---,0.00,VWS V14.01,2013-05-08 10:22:00,
2013-05-08 05:27:00,58.1,40.6,25.37,NNW,338,3.4,3.6,52,0.00,,---,0.00,VWS V14.01,2013-05-08 10:27:00,
2013-05-08 05:32:00,57.9,38.9,25.37,WNW,292,2.2,2.2,49,0.00,,---,0.00,VWS V14.01,2013-05-08 10:32:00,
2013-05-08 05:37:00,57.9,38.9,25.37,WNW,292,0.9,1.3,49,0.00,,---,0.00,VWS V14.01,2013-05-08 10:37:00,
2013-05-08 05:42:00,57.6,38.6,25.37,SW,225,0.0,0.0,49,0.00,,---,0.00,VWS V14.01,2013-05-08 10:42:00,
2013-05-08 05:47:00,57.9,39.9,25.37,SSE,158,1.6,2.2,51,0.00,,---,0.00,VWS V14.01,2013-05-08 10:47:00,
2013-05-08 05:52:00,57.9,40.4,25.37,SE,135,3.4,3.4,52,0.00,,---,0.00,VWS V14.01,2013-05-08 10:52:00,
2013-05-08 05:57:00,57.7,42.2,25.37,SE,135,4.9,4.9,56,0.00,,---,0.00,VWS V14.01,2013-05-08 10:57:00,
2013-05-08 06:02:00,57.9,40.9,25.37,SE,135,3.6,3.6,53,0.00,,---,0.00,VWS V14.01,2013-05-08 11:02:00,
2013-05-08 06:07:00,58.5,40.4,25.37,ESE,112,5.4,5.4,51,0.00,,---,0.00,VWS V14.01,2013-05-08 11:07:00,
2013-05-08 06:12:00,58.3,43.1,25.37,SE,135,5.6,5.6,57,0.00,,---,0.00,VWS V14.01,2013-05-08 11:12:00,
2013-05-08 06:17:00,58.5,42.8,25.37,ESE,112,4.0,4.0,56,0.00,,---,0.00,VWS V14.01,2013-05-08 11:17:00,
2013-05-08 06:22:00,58.6,43.0,25.39,SE,135,4.9,4.9,56,0.00,,---,0.00,VWS V14.01,2013-05-08 11:22:00,
2013-05-08 06:27:00,59.2,42.6,25.39,SSE,158,4.0,4.3,54,0.00,,---,0.00,VWS V14.01,2013-05-08 11:27:00,
2013-05-08 06:32:00,59.5,41.4,25.39,SSE,158,3.6,3.6,51,0.00,,---,0.00,VWS V14.01,2013-05-08 11:32:00,
2013-05-08 06:37:00,59.4,40.7,25.39,SSW,202,2.2,2.7,50,0.00,,---,0.00,VWS V14.01,2013-05-08 11:37:00,
2013-05-08 06:42:00,60.1,40.9,25.39,South,180,3.1,4.0,49,0.00,,---,0.00,VWS V14.01,2013-05-08 11:42:00,
2013-05-08 06:47:00,59.9,40.2,25.39,South,180,2.0,2.7,48,0.00,,---,0.00,VWS V14.01,2013-05-08 11:47:00,
2013-05-08 06:52:00,59.7,39.5,25.39,South,180,3.1,3.4,47,0.00,,---,0.00,VWS V14.01,2013-05-08 11:52:00,
2013-05-08 06:57:00,59.7,38.9,25.39,South,180,3.1,3.4,46,0.00,,---,0.00,VWS V14.01,2013-05-08 11:57:00,
2013-05-08 07:02:00,59.4,38.0,25.39,South,180,4.7,4.7,45,0.00,,---,0.00,VWS V14.01,2013-05-08 12:02:00,
2013-05-08 07:07:00,59.2,37.9,25.42,South,180,2.7,2.7,45,0.00,,---,0.00,VWS V14.01,2013-05-08 12:07:00,
2013-05-08 07:12:00,59.0,37.7,25.42,South,180,4.7,4.9,45,0.00,,---,0.00,VWS V14.01,2013-05-08 12:12:00,
2013-05-08 07:17:00,59.0,37.1,25.42,South,180,4.3,4.3,44,0.00,,---,0.00,VWS V14.01,2013-05-08 12:17:00,
2013-05-08 07:22:00,58.5,36.7,25.39,NE,45,1.1,2.9,44,0.00,,---,0.00,VWS V14.01,2013-05-08 12:22:00,
2013-05-08 07:27:00,57.9,37.3,25.39,ESE,112,3.8,3.8,46,0.00,,---,0.00,VWS V14.01,2013-05-08 12:27:00,
2013-05-08 07:32:00,57.9,36.7,25.39,ESE,112,3.4,3.4,45,0.00,,---,0.00,VWS V14.01,2013-05-08 12:32:00,
2013-05-08 07:37:00,58.1,36.9,25.42,SE,135,2.7,2.7,45,0.00,,---,0.00,VWS V14.01,2013-05-08 12:37:00,
2013-05-08 07:42:00,60.6,36.2,25.42,SSE,158,3.1,3.4,40,0.00,,---,0.00,VWS V14.01,2013-05-08 12:42:00,
2013-05-08 07:47:00,61.5,36.3,25.42,South,180,2.9,2.9,39,0.00,,---,0.00,VWS V14.01,2013-05-08 12:47:00,
2013-05-08 07:52:00,62.2,37.0,25.42,South,180,1.3,2.5,39,0.00,,---,0.00,VWS V14.01,2013-05-08 12:52:00,
2013-05-08 07:57:00,63.1,36.5,25.42,South,180,2.0,2.7,37,0.00,,---,0.00,VWS V14.01,2013-05-08 12:57:00,
2013-05-08 08:02:00,64.2,36.7,25.42,SSE,158,1.6,2.7,36,0.00,,---,0.00,VWS V14.01,2013-05-08 13:02:00,
2013-05-08 08:07:00,65.3,37.0,25.42,South,180,0.0,0.0,35,0.00,,---,0.00,VWS V14.01,2013-05-08 13:07:00,
2013-05-08 08:12:00,66.4,37.2,25.42,South,180,0.0,0.0,34,0.00,,---,0.00,VWS V14.01,2013-05-08 13:12:00,
2013-05-08 08:17:00,67.6,38.3,25.42,NE,45,2.5,2.5,34,0.00,,---,0.00,VWS V14.01,2013-05-08 13:17:00,
2013-05-08 08:22:00,68.5,39.1,25.39,ENE,68,1.3,1.3,34,0.00,,---,0.00,VWS V14.01,2013-05-08 13:22:00,
2013-05-08 08:27:00,69.6,39.3,25.39,WNW,292,1.6,1.6,33,0.00,,---,0.00,VWS V14.01,2013-05-08 13:27:00,
2013-05-08 08:32:00,70.5,38.5,25.39,WSW,248,0.0,1.3,31,0.00,,---,0.00,VWS V14.01,2013-05-08 13:32:00,
2013-05-08 08:37:00,70.5,35.9,25.42,SW,225,0.0,0.0,28,0.00,,---,0.00,VWS V14.01,2013-05-08 13:37:00,
2013-05-08 08:42:00,71.8,34.1,25.42,WSW,248,0.0,1.3,25,0.00,,---,0.00,VWS V14.01,2013-05-08 13:42:00,
2013-05-08 08:47:00,72.5,32.6,25.42,SW,225,2.5,3.6,23,0.00,,---,0.00,VWS V14.01,2013-05-08 13:47:00,
2013-05-08 08:52:00,73.2,32.1,25.42,SW,225,2.9,2.9,22,0.00,,---,0.00,VWS V14.01,2013-05-08 13:52:00,
2013-05-08 08:57:00,73.9,32.7,25.42,West,270,4.9,4.9,22,0.00,,---,0.00,VWS V14.01,2013-05-08 13:57:00,
2013-05-08 09:02:00,74.3,31.9,25.42,WSW,248,3.6,4.3,21,0.00,,---,0.00,VWS V14.01,2013-05-08 14:02:00,
2013-05-08 09:07:00,74.5,32.0,25.42,WSW,248,4.3,4.3,21,0.00,,---,0.00,VWS V14.01,2013-05-08 14:07:00,
2013-05-08 09:12:00,74.8,32.3,25.42,WSW,248,6.5,6.5,21,0.00,,---,0.00,VWS V14.01,2013-05-08 14:12:00,
2013-05-08 09:17:00,74.8,28.5,25.42,West,270,5.6,7.8,18,0.00,,---,0.00,VWS V14.01,2013-05-08 14:17:00,
2013-05-08 09:22:00,74.8,28.5,25.42,NW,315,5.4,7.6,18,0.00,,---,0.00,VWS V14.01,2013-05-08 14:22:00,
2013-05-08 09:27:00,75.7,29.3,25.42,North,0,5.4,7.8,18,0.00,,---,0.00,VWS V14.01,2013-05-08 14:27:00,
2013-05-08 09:32:00,77.5,30.7,25.42,WNW,292,2.0,2.7,18,0.00,,---,0.00,VWS V14.01,2013-05-08 14:32:00,
2013-05-08 09:37:00,77.5,30.7,25.42,SW,225,5.8,6.5,18,0.00,,---,0.00,VWS V14.01,2013-05-08 14:37:00,
2013-05-08 09:42:00,77.5,30.7,25.42,NNE,22,8.7,8.7,18,0.00,,---,0.00,VWS V14.01,2013-05-08 14:42:00,
2013-05-08 09:47:00,76.6,30.0,25.42,NNW,338,7.8,7.8,18,0.00,,---,0.00,VWS V14.01,2013-05-08 14:47:00,
2013-05-08 09:52:00,76.6,30.0,25.42,North,0,8.7,8.7,18,0.00,,---,0.00,VWS V14.01,2013-05-08 14:52:00,
2013-05-08 09:57:00,77.0,25.9,25.42,NNW,338,4.3,6.0,15,0.00,,---,0.00,VWS V14.01,2013-05-08 14:57:00,
2013-05-08 10:02:00,77.9,26.6,25.42,North,0,4.0,4.0,15,0.00,,---,0.00,VWS V14.01,2013-05-08 15:02:00,
2013-05-08 10:07:00,78.1,26.7,25.42,NNW,338,4.9,7.4,15,0.00,,---,0.00,VWS V14.01,2013-05-08 15:07:00,
2013-05-08 10:12:00,79.2,27.6,25.42,NW,315,6.3,6.5,15,0.00,,---,0.00,VWS V14.01,2013-05-08 15:12:00,
2013-05-08 10:17:00,80.2,28.4,25.42,NW,315,2.7,3.8,15,0.00,,---,0.00,VWS V14.01,2013-05-08 15:17:00,
2013-05-08 10:22:00,79.0,27.4,25.42,NW,315,7.6,8.7,15,0.00,,---,0.00,VWS V14.01,2013-05-08 15:22:00,
2013-05-08 10:27:00,78.4,27.0,25.42,West,270,5.4,7.4,15,0.00,,---,0.00,VWS V14.01,2013-05-08 15:27:00,
2013-05-08 10:32:00,77.4,26.1,25.42,WNW,292,13.2,13.4,15,0.00,,---,0.00,VWS V14.01,2013-05-08 15:32:00,
2013-05-08 10:37:00,77.9,26.6,25.42,SW,225,10.7,16.3,15,0.00,,---,0.00,VWS V14.01,2013-05-08 15:37:00,
2013-05-08 10:42:00,77.5,26.3,25.42,WSW,248,11.0,11.0,15,0.00,,---,0.00,VWS V14.01,2013-05-08 15:42:00,
2013-05-08 10:47:00,77.4,26.1,25.42,WSW,248,10.5,10.5,15,0.00,,---,0.00,VWS V14.01,2013-05-08 15:47:00,
2013-05-08 10:52:00,76.8,25.7,25.42,West,270,15.4,15.4,15,0.00,,---,0.00,VWS V14.01,2013-05-08 15:52:00,
2013-05-08 10:57:00,77.5,26.3,25.42,West,270,12.5,12.5,15,0.00,,---,0.00,VWS V14.01,2013-05-08 15:57:00,
2013-05-08 11:02:00,77.7,26.4,25.42,WSW,248,16.3,17.2,15,0.00,,---,0.00,VWS V14.01,2013-05-08 16:02:00,
2013-05-08 11:07:00,76.3,25.3,25.42,West,270,21.5,21.5,15,0.00,,---,0.00,VWS V14.01,2013-05-08 16:07:00,
2013-05-08 11:12:00,76.3,25.3,25.42,West,270,15.7,15.7,15,0.00,,---,0.00,VWS V14.01,2013-05-08 16:12:00,
2013-05-08 11:17:00,77.4,26.1,25.42,SSW,202,14.8,14.8,15,0.00,,---,0.00,VWS V14.01,2013-05-08 16:17:00,
2013-05-08 11:22:00,78.4,27.0,25.42,WSW,248,16.3,16.3,15,0.00,,---,0.00,VWS V14.01,2013-05-08 16:22:00,
2013-05-08 11:27:00,78.4,27.0,25.42,West,270,13.4,13.4,15,0.00,,---,0.00,VWS V14.01,2013-05-08 16:27:00,
2013-05-08 11:32:00,78.6,27.1,25.42,SW,225,17.7,17.7,15,0.00,,---,0.00,VWS V14.01,2013-05-08 16:32:00,
2013-05-08 11:37:00,78.4,27.0,25.42,West,270,14.3,25.1,15,0.00,,---,0.00,VWS V14.01,2013-05-08 16:37:00,
2013-05-08 11:42:00,78.1,26.7,25.42,West,270,10.1,10.1,15,0.00,,---,0.00,VWS V14.01,2013-05-08 16:42:00,
2013-05-08 11:47:00,78.3,26.9,25.42,WSW,248,15.9,19.9,15,0.00,,---,0.00,VWS V14.01,2013-05-08 16:47:00,
2013-05-08 11:52:00,79.2,27.6,25.42,WSW,248,10.7,12.5,15,0.00,,---,0.00,VWS V14.01,2013-05-08 16:52:00,
2013-05-08 11:57:00,78.4,27.0,25.42,WSW,248,10.7,10.7,15,0.00,,---,0.00,VWS V14.01,2013-05-08 16:57:00,
2013-05-08 12:02:00,79.2,27.6,25.42,SSW,202,10.7,12.8,15,0.00,,---,0.00,VWS V14.01,2013-05-08 17:02:00,
2013-05-08 12:07:00,78.8,27.3,25.42,WSW,248,11.0,14.3,15,0.00,,---,0.00,VWS V14.01,2013-05-08 17:07:00,
2013-05-08 12:12:00,79.5,27.9,25.42,West,270,10.1,10.5,15,0.00,,---,0.00,VWS V14.01,2013-05-08 17:12:00,
2013-05-08 12:17:00,81.1,27.5,25.42,West,270,22.4,22.4,14,0.00,,---,0.00,VWS V14.01,2013-05-08 17:17:00,
2013-05-08 12:22:00,79.9,28.1,25.42,WSW,248,16.6,17.0,15,0.00,,---,0.00,VWS V14.01,2013-05-08 17:22:00,
2013-05-08 12:27:00,81.0,27.3,25.42,West,270,7.8,11.0,14,0.00,,---,0.00,VWS V14.01,2013-05-08 17:27:00,
2013-05-08 12:32:00,79.7,28.0,25.42,SW,225,12.5,13.0,15,0.00,,---,0.00,VWS V14.01,2013-05-08 17:32:00,
2013-05-08 12:38:00,79.9,28.1,25.42,West,270,16.1,16.3,15,0.00,,---,0.00,VWS V14.01,2013-05-08 17:38:00,
2013-05-08 12:43:00,83.8,29.6,25.42,WNW,292,6.3,6.3,14,0.00,,---,0.00,VWS V14.01,2013-05-08 17:43:00,
2013-05-08 12:48:00,81.9,28.0,25.42,WNW,292,8.5,13.2,14,0.00,,---,0.00,VWS V14.01,2013-05-08 17:48:00,
2013-05-08 12:53:00,82.6,28.6,25.42,WNW,292,8.5,9.6,14,0.00,,---,0.00,VWS V14.01,2013-05-08 17:53:00,
2013-05-08 12:58:00,81.3,27.6,25.42,WSW,248,9.6,10.7,14,0.00,,---,0.00,VWS V14.01,2013-05-08 17:58:00,
2013-05-08 13:03:00,80.2,23.1,25.42,WSW,248,11.9,16.8,12,0.00,,---,0.00,VWS V14.01,2013-05-08 18:03:00,
2013-05-08 13:08:00,79.9,22.8,25.39,SW,225,17.5,17.5,12,0.00,,---,0.00,VWS V14.01,2013-05-08 18:08:00,
2013-05-08 13:13:00,80.1,22.9,25.39,SSW,202,11.2,11.2,12,0.00,,---,0.00,VWS V14.01,2013-05-08 18:13:00,
2013-05-08 13:18:00,78.8,22.0,25.39,WSW,248,14.8,14.8,12,0.00,,---,0.00,VWS V14.01,2013-05-08 18:18:00,
2013-05-08 13:23:00,78.8,22.0,25.42,SW,225,12.3,13.0,12,0.00,,---,0.00,VWS V14.01,2013-05-08 18:23:00,
2013-05-08 13:28:00,78.6,23.7,25.42,WSW,248,12.3,15.2,13,0.00,,---,0.00,VWS V14.01,2013-05-08 18:28:00,
2013-05-08 13:33:00,80.4,23.2,25.42,SW,225,12.8,13.2,12,0.00,,---,0.00,VWS V14.01,2013-05-08 18:33:00,
2013-05-08 13:38:00,81.1,23.8,25.39,SW,225,12.1,12.5,12,0.00,,---,0.00,VWS V14.01,2013-05-08 18:38:00,
2013-05-08 13:43:00,82.0,24.5,25.39,SW,225,12.1,12.1,12,0.00,,---,0.00,VWS V14.01,2013-05-08 18:43:00,
2013-05-08 13:48:00,80.8,23.5,25.39,SW,225,7.8,10.3,12,0.00,,---,0.00,VWS V14.01,2013-05-08 18:48:00,
2013-05-08 13:53:00,83.1,23.2,25.37,SW,225,4.0,6.5,11,0.00,,---,0.00,VWS V14.01,2013-05-08 18:53:00,
2013-05-08 13:58:00,81.7,24.2,25.37,SSW,202,13.2,13.2,12,0.00,,---,0.00,VWS V14.01,2013-05-08 18:58:00,
2013-05-08 14:03:00,80.6,23.4,25.37,SSW,202,8.5,17.7,12,0.00,,---,0.00,VWS V14.01,2013-05-08 19:03:00,
2013-05-08 14:08:00,82.0,28.2,25.37,SW,225,10.7,15.4,14,0.00,,---,0.00,VWS V14.01,2013-05-08 19:08:00,
2013-05-08 14:13:00,82.9,28.9,25.37,SW,225,7.4,10.3,14,0.00,,---,0.00,VWS V14.01,2013-05-08 19:13:00,
2013-05-08 14:18:00,87.1,30.3,25.37,NW,315,2.0,2.7,13,0.00,,---,0.00,VWS V14.01,2013-05-08 19:18:00,
2013-05-08 14:23:00,82.6,22.8,25.37,SW,225,15.4,15.9,11,0.00,,---,0.00,VWS V14.01,2013-05-08 19:23:00,
2013-05-08 14:28:00,82.6,22.8,25.37,SSW,202,15.2,15.2,11,0.00,,---,0.00,VWS V14.01,2013-05-08 19:28:00,
2013-05-08 14:33:00,82.9,28.9,25.37,SW,225,14.8,15.9,14,0.00,,---,0.00,VWS V14.01,2013-05-08 19:33:00,
2013-05-08 14:38:00,82.4,22.7,25.34,West,270,11.0,11.9,11,0.00,,---,0.00,VWS V14.01,2013-05-08 19:38:00,
2013-05-08 14:43:00,82.9,23.1,25.34,South,180,6.5,6.5,11,0.00,,---,0.00,VWS V14.01,2013-05-08 19:43:00,
2013-05-08 14:48:00,86.4,25.7,25.34,SSW,202,3.8,9.0,11,0.00,,---,0.00,VWS V14.01,2013-05-08 19:48:00,
2013-05-08 14:53:00,84.9,24.6,25.37,West,270,17.0,17.0,11,0.00,,---,0.00,VWS V14.01,2013-05-08 19:53:00,
2013-05-08 14:58:00,86.0,25.4,25.37,NW,315,7.6,10.3,11,0.00,,---,0.00,VWS V14.01,2013-05-08 19:58:00,
2013-05-08 15:03:00,84.0,23.9,25.37,SW,225,12.5,23.0,11,0.00,,---,0.00,VWS V14.01,2013-05-08 20:03:00,
2013-05-08 15:08:00,84.7,24.5,25.37,WSW,248,11.2,13.2,11,0.00,,---,0.00,VWS V14.01,2013-05-08 20:08:00,
2013-05-08 15:13:00,85.3,24.9,25.37,West,270,10.1,12.3,11,0.00,,---,0.00,VWS V14.01,2013-05-08 20:13:00,
2013-05-08 15:18:00,85.3,24.9,25.37,SW,225,11.9,15.4,11,0.00,,---,0.00,VWS V14.01,2013-05-08 20:18:00,
2013-05-08 15:23:00,88.2,24.8,25.37,NW,315,2.9,3.8,10,0.00,,---,0.00,VWS V14.01,2013-05-08 20:23:00,
2013-05-08 15:28:00,86.7,26.0,25.37,South,180,6.3,8.5,11,0.00,,---,0.00,VWS V14.01,2013-05-08 20:28:00,
2013-05-08 15:33:00,86.4,25.7,25.37,West,270,12.5,17.7,11,0.00,,---,0.00,VWS V14.01,2013-05-08 20:33:00,
2013-05-08 15:38:00,84.0,23.9,25.34,West,270,15.4,20.6,11,0.00,,---,0.00,VWS V14.01,2013-05-08 20:38:00,
2013-05-08 15:43:00,84.2,24.0,25.34,SW,225,10.7,17.0,11,0.00,,---,0.00,VWS V14.01,2013-05-08 20:43:00,
2013-05-08 15:48:00,86.2,25.6,25.34,West,270,17.5,17.5,11,0.00,,---,0.00,VWS V14.01,2013-05-08 20:48:00,
2013-05-08 15:53:00,84.7,24.5,25.34,SW,225,12.3,12.3,11,0.00,,---,0.00,VWS V14.01,2013-05-08 20:53:00,
2013-05-08 15:58:00,85.1,28.8,25.34,SW,225,12.3,12.5,13,0.00,,---,0.00,VWS V14.01,2013-05-08 20:58:00,
2013-05-08 16:03:00,85.5,29.1,25.34,WSW,248,12.8,12.8,13,0.00,,---,0.00,VWS V14.01,2013-05-08 21:03:00,
2013-05-08 16:08:00,87.3,30.5,25.34,WNW,292,6.7,8.5,13,0.00,,---,0.00,VWS V14.01,2013-05-08 21:08:00,
2013-05-08 16:13:00,88.2,24.8,25.34,NW,315,5.6,5.6,10,0.00,,---,0.00,VWS V14.01,2013-05-08 21:13:00,
2013-05-08 16:18:00,87.6,26.7,25.34,SW,225,4.3,6.5,11,0.00,,---,0.00,VWS V14.01,2013-05-08 21:18:00,
2013-05-08 16:23:00,88.7,31.6,25.31,SSW,202,4.0,4.7,13,0.00,,---,0.00,VWS V14.01,2013-05-08 21:23:00,
2013-05-08 16:28:00,88.0,31.0,25.31,SW,225,6.0,8.1,13,0.00,,---,0.00,VWS V14.01,2013-05-08 21:28:00,
2013-05-08 16:33:00,87.8,30.9,25.31,SSW,202,9.6,9.6,13,0.00,,---,0.00,VWS V14.01,2013-05-08 21:33:00,
2013-05-08 16:38:00,85.6,29.2,25.31,SSW,202,6.3,6.3,13,0.00,,---,0.00,VWS V14.01,2013-05-08 21:38:00,
2013-05-08 16:43:00,87.1,30.3,25.31,SSW,202,4.3,4.3,13,0.00,,---,0.00,VWS V14.01,2013-05-08 21:43:00,
2013-05-08 16:48:00,88.2,31.2,25.31,WSW,248,15.2,18.6,13,0.00,,---,0.00,VWS V14.01,2013-05-08 21:48:00,
2013-05-08 16:53:00,85.6,25.2,25.31,West,270,10.5,17.2,11,0.00,,---,0.00,VWS V14.01,2013-05-08 21:53:00,
2013-05-08 16:58:00,87.6,30.8,25.31,SW,225,6.5,8.5,13,0.00,,---,0.00,VWS V14.01,2013-05-08 21:58:00,
2013-05-08 17:03:00,88.0,31.0,25.31,SSW,202,6.5,8.5,13,0.00,,---,0.00,VWS V14.01,2013-05-08 22:03:00,
2013-05-08 17:08:00,87.4,30.6,25.31,SSE,158,7.6,12.5,13,0.00,,---,0.00,VWS V14.01,2013-05-08 22:08:00,
2013-05-08 17:13:00,87.3,30.5,25.31,SW,225,10.3,12.5,13,0.00,,---,0.00,VWS V14.01,2013-05-08 22:13:00,
2013-05-08 17:18:00,86.5,29.9,25.31,SW,225,13.2,13.2,13,0.00,,---,0.00,VWS V14.01,2013-05-08 22:18:00,
2013-05-08 17:23:00,86.2,25.6,25.31,SW,225,11.2,11.2,11,0.00,,---,0.00,VWS V14.01,2013-05-08 22:23:00,
2013-05-08 17:28:00,86.4,29.8,25.31,WSW,248,4.9,4.9,13,0.00,,---,0.00,VWS V14.01,2013-05-08 22:28:00,
2013-05-08 17:33:00,87.3,30.5,25.31,WSW,248,4.9,6.0,13,0.00,,---,0.00,VWS V14.01,2013-05-08 22:33:00,
2013-05-08 17:38:00,86.9,30.2,25.31,West,270,10.7,10.7,13,0.00,,---,0.00,VWS V14.01,2013-05-08 22:38:00,
2013-05-08 17:43:00,87.6,30.8,25.31,SW,225,7.2,7.2,13,0.00,,---,0.00,VWS V14.01,2013-05-08 22:43:00,
2013-05-08 17:48:00,87.1,30.3,25.31,SW,225,13.0,13.0,13,0.00,,---,0.00,VWS V14.01,2013-05-08 22:48:00,
2013-05-08 17:53:00,86.7,30.0,25.31,SW,225,9.8,9.8,13,0.00,,---,0.00,VWS V14.01,2013-05-08 22:53:00,
2013-05-08 17:58:00,85.8,25.3,25.31,WSW,248,19.9,19.9,11,0.00,,---,0.00,VWS V14.01,2013-05-08 22:58:00,
2013-05-08 18:03:00,84.0,23.9,25.31,WSW,248,17.0,17.0,11,0.00,,---,0.00,VWS V14.01,2013-05-08 23:03:00,
2013-05-08 18:08:00,85.1,24.7,25.31,West,270,15.4,15.4,11,0.00,,---,0.00,VWS V14.01,2013-05-08 23:08:00,
2013-05-08 18:13:00,85.3,24.9,25.31,West,270,10.3,10.7,11,0.00,,---,0.00,VWS V14.01,2013-05-08 23:13:00,
2013-05-08 18:18:00,84.4,24.2,25.31,WSW,248,10.3,14.5,11,0.00,,---,0.00,VWS V14.01,2013-05-08 23:18:00,
2013-05-08 18:23:00,83.7,23.6,25.31,West,270,10.5,10.5,11,0.00,,---,0.00,VWS V14.01,2013-05-08 23:23:00,
2013-05-08 18:28:00,83.3,23.4,25.31,West,270,14.8,15.7,11,0.00,,---,0.00,VWS V14.01,2013-05-08 23:28:00,
2013-05-08 18:33:00,84.0,23.9,25.31,SW,225,14.8,19.0,11,0.00,,---,0.00,VWS V14.01,2013-05-08 23:33:00,
2013-05-08 18:38:00,83.1,23.2,25.31,South,180,6.0,6.5,11,0.00,,---,0.00,VWS V14.01,2013-05-08 23:38:00,
2013-05-08 18:43:00,83.7,23.6,25.31,SSW,202,5.6,6.0,11,0.00,,---,0.00,VWS V14.01,2013-05-08 23:43:00,
2013-05-08 18:48:00,83.1,23.2,25.31,West,270,4.9,4.9,11,0.00,,---,0.00,VWS V14.01,2013-05-08 23:48:00,
2013-05-08 18:53:00,82.8,23.0,25.31,WSW,248,11.4,12.3,11,0.00,,---,0.00,VWS V14.01,2013-05-08 23:53:00,
2013-05-08 18:58:00,81.9,24.3,25.31,West,270,12.8,12.8,12,0.00,,---,0.00,VWS V14.01,2013-05-08 23:58:00,
2013-05-08 19:03:00,82.4,22.7,25.31,WSW,248,8.7,8.7,11,0.00,,---,0.00,VWS V14.01,2013-05-09 00:03:00,
2013-05-08 19:08:00,82.0,24.5,25.31,West,270,8.7,8.7,12,0.00,,---,0.00,VWS V14.01,2013-05-09 00:08:00,
2013-05-08 19:13:00,81.9,24.3,25.31,West,270,6.0,6.0,12,0.00,,---,0.00,VWS V14.01,2013-05-09 00:13:00,
2013-05-08 19:18:00,81.5,24.0,25.31,WSW,248,9.8,9.8,12,0.00,,---,0.00,VWS V14.01,2013-05-09 00:18:00,
2013-05-08 19:23:00,81.5,24.0,25.31,West,270,6.5,6.5,12,0.00,,---,0.00,VWS V14.01,2013-05-09 00:23:00,
2013-05-08 19:28:00,81.3,23.9,25.31,SW,225,3.8,5.4,12,0.00,,---,0.00,VWS V14.01,2013-05-09 00:28:00,
2013-05-08 19:33:00,80.8,23.5,25.31,West,270,7.6,7.6,12,0.00,,---,0.00,VWS V14.01,2013-05-09 00:33:00,
2013-05-08 19:38:00,80.4,23.2,25.31,WSW,248,8.5,8.5,12,0.00,,---,0.00,VWS V14.01,2013-05-09 00:38:00,
2013-05-08 19:43:00,80.2,23.1,25.31,West,270,5.8,5.8,12,0.00,,---,0.00,VWS V14.01,2013-05-09 00:43:00,
2013-05-08 19:48:00,79.9,22.8,25.31,NW,315,4.0,4.3,12,0.00,,---,0.00,VWS V14.01,2013-05-09 00:48:00,
2013-05-08 19:53:00,79.5,22.5,25.31,West,270,7.4,7.8,12,0.00,,---,0.00,VWS V14.01,2013-05-09 00:53:00,
2013-05-08 19:58:00,79.2,22.2,25.31,WSW,248,7.2,7.2,12,0.00,,---,0.00,VWS V14.01,2013-05-09 00:58:00,
2013-05-08 20:03:00,78.8,22.0,25.31,West,270,3.4,3.4,12,0.00,,---,0.00,VWS V14.01,2013-05-09 01:03:00,
2013-05-08 20:08:00,78.3,23.4,25.31,West,270,3.6,4.9,13,0.00,,---,0.00,VWS V14.01,2013-05-09 01:08:00,
2013-05-08 20:13:00,77.9,23.1,25.31,WSW,248,3.6,4.3,13,0.00,,---,0.00,VWS V14.01,2013-05-09 01:13:00,
2013-05-08 20:18:00,77.4,22.7,25.31,WNW,292,1.3,1.6,13,0.00,,---,0.00,VWS V14.01,2013-05-09 01:18:00,
2013-05-08 20:23:00,76.5,22.0,25.31,WNW,292,1.3,1.3,13,0.00,,---,0.00,VWS V14.01,2013-05-09 01:23:00,
2013-05-08 20:28:00,75.7,21.5,25.31,SW,225,0.0,0.0,13,0.00,,---,0.00,VWS V14.01,2013-05-09 01:28:00,
2013-05-08 20:33:00,75.4,21.2,25.31,SW,225,0.0,0.0,13,0.00,,---,0.00,VWS V14.01,2013-05-09 01:33:00,
2013-05-08 20:38:00,74.8,20.7,25.31,South,180,2.2,2.2,13,0.00,,---,0.00,VWS V14.01,2013-05-09 01:38:00,
2013-05-08 20:43:00,74.7,20.6,25.31,South,180,1.1,1.6,13,0.00,,---,0.00,VWS V14.01,2013-05-09 01:43:00,
2013-05-08 20:48:00,74.3,20.3,25.31,South,180,0.0,0.0,13,0.00,,---,0.00,VWS V14.01,2013-05-09 01:48:00,
2013-05-08 20:53:00,74.1,20.2,25.31,South,180,1.6,2.0,13,0.00,,---,0.00,VWS V14.01,2013-05-09 01:53:00,
2013-05-08 20:58:00,74.5,20.5,25.31,South,180,2.0,2.0,13,0.00,,---,0.00,VWS V14.01,2013-05-09 01:58:00,
2013-05-08 21:03:00,74.1,20.2,25.31,South,180,0.0,0.0,13,0.00,,---,0.00,VWS V14.01,2013-05-09 02:03:00,
2013-05-08 21:08:00,73.9,20.0,25.31,South,180,0.0,0.0,13,0.00,,---,0.00,VWS V14.01,2013-05-09 02:08:00,
2013-05-08 21:13:00,72.3,20.5,25.31,South,180,0.0,0.0,14,0.00,,---,0.00,VWS V14.01,2013-05-09 02:13:00,
2013-05-08 21:18:00,72.0,20.2,25.31,South,180,0.0,0.0,14,0.00,,---,0.00,VWS V14.01,2013-05-09 02:18:00,
2013-05-08 21:23:00,71.4,19.8,25.31,South,180,0.0,0.0,14,0.00,,---,0.00,VWS V14.01,2013-05-09 02:23:00,
2013-05-08 21:29:00,71.4,19.8,25.31,South,180,0.0,0.0,14,0.00,,---,0.00,VWS V14.01,2013-05-09 02:29:00,
2013-05-08 21:34:00,70.9,19.4,25.31,SSE,158,4.0,4.0,14,0.00,,---,0.00,VWS V14.01,2013-05-09 02:34:00,
2013-05-08 21:39:00,70.7,19.2,25.31,ESE,112,3.6,3.6,14,0.00,,---,0.00,VWS V14.01,2013-05-09 02:39:00,
2013-05-08 21:44:00,70.5,19.1,25.31,SE,135,4.0,4.0,14,0.00,,---,0.00,VWS V14.01,2013-05-09 02:44:00,
2013-05-08 21:49:00,70.7,19.2,25.31,ESE,112,3.8,3.8,14,0.00,,---,0.00,VWS V14.01,2013-05-09 02:49:00,
2013-05-08 21:54:00,70.3,18.9,25.31,ESE,112,4.9,4.9,14,0.00,,---,0.00,VWS V14.01,2013-05-09 02:54:00,
2013-05-08 21:59:00,69.4,19.8,25.31,ESE,112,4.9,5.4,15,0.00,,---,0.00,VWS V14.01,2013-05-09 02:59:00,
2013-05-08 22:04:00,69.4,19.8,25.31,ESE,112,4.3,4.9,15,0.00,,---,0.00,VWS V14.01,2013-05-09 03:04:00,
2013-05-08 22:09:00,69.3,19.7,25.31,ESE,112,4.3,4.3,15,0.00,,---,0.00,VWS V14.01,2013-05-09 03:09:00,
2013-05-08 22:14:00,68.9,19.4,25.31,ESE,112,4.9,4.9,15,0.00,,---,0.00,VWS V14.01,2013-05-09 03:14:00,
2013-05-08 22:19:00,68.7,19.2,25.31,ESE,112,4.3,4.9,15,0.00,,---,0.00,VWS V14.01,2013-05-09 03:19:00,
2013-05-08 22:24:00,68.9,19.4,25.34,ESE,112,5.8,5.8,15,0.00,,---,0.00,VWS V14.01,2013-05-09 03:24:00,
2013-05-08 22:29:00,68.9,19.4,25.34,ESE,112,5.6,5.6,15,0.00,,---,0.00,VWS V14.01,2013-05-09 03:29:00,
2013-05-08 22:34:00,68.7,19.2,25.34,ESE,112,5.8,5.8,15,0.00,,---,0.00,VWS V14.01,2013-05-09 03:34:00,
2013-05-08 22:39:00,68.7,19.2,25.34,ESE,112,4.7,4.9,15,0.00,,---,0.00,VWS V14.01,2013-05-09 03:39:00,
2013-05-08 22:44:00,68.7,19.2,25.34,ESE,112,4.9,4.9,15,0.00,,---,0.00,VWS V14.01,2013-05-09 03:44:00,
2013-05-08 22:49:00,68.7,19.2,25.34,ESE,112,4.3,5.6,15,0.00,,---,0.00,VWS V14.01,2013-05-09 03:49:00,
2013-05-08 22:54:00,68.9,19.4,25.34,ESE,112,5.6,5.6,15,0.00,,---,0.00,VWS V14.01,2013-05-09 03:54:00,
2013-05-08 22:59:00,69.1,19.5,25.34,East,90,5.6,5.6,15,0.00,,---,0.00,VWS V14.01,2013-05-09 03:59:00,
2013-05-08 23:01:00,69.3,19.7,25.34,ESE,112,3.8,5.6,15,0.00,,---,0.00,VWS V14.01,2013-05-09 04:01:00,
2013-05-08 23:06:00,70.0,18.6,25.34,ENE,68,8.7,8.7,14,0.00,,---,0.00,VWS V14.01,2013-05-09 04:06:00,
2013-05-08 23:11:00,70.9,19.4,25.34,ENE,68,8.5,9.6,14,0.00,,---,0.00,VWS V14.01,2013-05-09 04:11:00,
2013-05-08 23:16:00,71.6,19.9,25.34,ENE,68,10.5,12.5,14,0.00,,---,0.00,VWS V14.01,2013-05-09 04:16:00,
2013-05-08 23:21:00,72.1,20.4,25.37,ENE,68,15.4,15.4,14,0.00,,---,0.00,VWS V14.01,2013-05-09 04:21:00,
2013-05-08 23:26:00,72.3,20.5,25.37,NE,45,13.0,17.7,14,0.00,,---,0.00,VWS V14.01,2013-05-09 04:26:00,
2013-05-08 23:32:00,72.3,20.5,25.37,ENE,68,13.2,14.8,14,0.00,,---,0.00,VWS V14.01,2013-05-09 04:32:00,
2013-05-08 23:37:00,72.3,20.5,25.37,NE,45,6.3,8.7,14,0.00,,---,0.00,VWS V14.01,2013-05-09 04:37:00,
2013-05-08 23:42:00,72.0,20.2,25.37,NE,45,17.2,18.1,14,0.00,,---,0.00,VWS V14.01,2013-05-09 04:42:00,
2013-05-08 23:47:00,72.0,20.2,25.37,NE,45,8.1,8.5,14,0.00,,---,0.00,VWS V14.01,2013-05-09 04:47:00,
2013-05-08 23:52:00,71.8,20.1,25.37,NE,45,15.4,15.4,14,0.00,,---,0.00,VWS V14.01,2013-05-09 04:52:00,
2013-05-08 23:57:00,71.4,19.8,25.37,NE,45,15.2,15.2,14,0.00,,---,0.00,VWS V14.01,2013-05-09 04:57:00,